createdAt,value
2023-04-13T00:00:33.135Z,9.48
2023-04-13T00:03:00.315Z,9.65
2023-04-13T00:05:28.182Z,9.00
2023-04-13T00:07:55.157Z,9.35
2023-04-13T00:10:21.940Z,8.93
2023-04-13T00:12:48.843Z,9.57
2023-04-13T00:15:21.884Z,8.88
2023-04-13T00:17:48.657Z,9.73
2023-04-13T00:20:15.452Z,9.15
2023-04-13T00:22:43.013Z,9.85
2023-04-13T00:25:11.591Z,9.43
2023-04-13T00:27:42.345Z,9.73
2023-04-13T00:30:18.061Z,9.35
2023-04-13T00:32:45.031Z,9.40
2023-04-13T00:35:15.646Z,9.60
2023-04-13T00:37:44.951Z,8.40
2023-04-13T00:40:12.110Z,9.32
2023-04-13T00:42:38.849Z,8.00
2023-04-13T00:45:06.021Z,8.02
2023-04-13T00:47:34.373Z,7.97
2023-04-13T00:50:01.575Z,8.32
2023-04-13T00:52:28.968Z,8.32
2023-04-13T00:54:57.792Z,7.55
2023-04-13T00:57:25.295Z,8.32
2023-04-13T00:59:52.804Z,7.82
2023-04-13T01:02:24.734Z,7.25
2023-04-13T01:04:51.999Z,7.38
2023-04-13T01:07:45.424Z,7.95
2023-04-13T01:10:35.330Z,7.55
2023-04-13T01:13:22.854Z,6.47
2023-04-13T01:16:13.868Z,6.22
2023-04-13T01:18:40.621Z,6.97
2023-04-13T01:21:08.176Z,6.53
2023-04-13T01:23:50.086Z,6.95
2023-04-13T01:26:17.197Z,7.13
2023-04-13T01:28:43.875Z,7.10
2023-04-13T01:31:11.985Z,6.15
2023-04-13T01:33:40.478Z,6.22
2023-04-13T01:36:08.173Z,6.03
2023-04-13T01:38:35.557Z,8.48
2023-04-13T01:41:02.501Z,7.40
2023-04-13T01:43:29.137Z,6.47
2023-04-13T01:46:04.813Z,6.13
2023-04-13T01:48:43.099Z,5.88
2023-04-13T01:51:19.942Z,5.95
2023-04-13T01:53:57.126Z,4.30
2023-04-13T01:56:23.985Z,4.40
2023-04-13T01:58:56.233Z,4.50
2023-04-13T02:01:22.985Z,4.15
2023-04-13T02:03:49.820Z,4.00
2023-04-13T02:06:16.505Z,3.90
2023-04-13T02:08:43.121Z,4.00
2023-04-13T02:11:10.224Z,4.72
2023-04-13T02:13:36.887Z,4.13
2023-04-13T02:16:04.020Z,3.90
2023-04-13T02:18:30.659Z,3.75
2023-04-13T02:21:03.001Z,3.42
2023-04-13T02:23:30.391Z,3.83
2023-04-13T02:25:58.255Z,3.88
2023-04-13T02:28:26.228Z,3.42
2023-04-13T02:30:52.848Z,3.40
2023-04-13T02:33:21.222Z,3.28
2023-04-13T02:35:48.825Z,3.28
2023-04-13T02:38:16.839Z,3.42
2023-04-13T02:40:43.855Z,2.85
2023-04-13T02:43:10.485Z,2.60
2023-04-13T02:45:37.480Z,2.67
2023-04-13T02:48:04.851Z,2.80
2023-04-13T02:50:31.511Z,2.70
2023-04-13T02:52:58.260Z,2.60
2023-04-13T02:55:24.864Z,2.17
2023-04-13T02:57:51.562Z,2.47
2023-04-13T03:00:18.411Z,2.50
2023-04-13T03:02:45.124Z,2.20
2023-04-13T03:05:12.901Z,2.40
2023-04-13T03:07:39.524Z,2.17
2023-04-13T03:10:08.861Z,2.00
2023-04-13T03:12:35.520Z,1.95
2023-04-13T03:15:02.771Z,1.48
2023-04-13T03:17:32.692Z,1.70
2023-04-13T03:19:59.785Z,1.40
2023-04-13T03:22:30.421Z,1.60
2023-04-13T03:24:57.129Z,1.80
2023-04-13T03:27:23.803Z,2.05
2023-04-13T03:29:50.503Z,1.85
2023-04-13T03:32:17.170Z,1.85
2023-04-13T03:34:44.404Z,1.80
2023-04-13T03:37:11.657Z,1.60
2023-04-13T03:39:39.217Z,1.90
2023-04-13T03:42:05.953Z,1.63
2023-04-13T03:44:32.837Z,1.42
2023-04-13T03:46:59.447Z,1.40
2023-04-13T03:49:26.323Z,1.60
2023-04-13T03:51:53.062Z,1.15
2023-04-13T03:54:19.682Z,1.05
2023-04-13T03:56:46.360Z,1.30
2023-04-13T03:59:12.963Z,1.25
2023-04-13T04:01:39.601Z,1.05
2023-04-13T04:04:06.666Z,0.80
2023-04-13T04:06:33.366Z,1.40
2023-04-13T04:08:59.954Z,0.80
2023-04-13T04:11:27.022Z,1.25
2023-04-13T04:13:54.372Z,1.05
2023-04-13T04:16:21.044Z,1.35
2023-04-13T04:18:47.738Z,1.00
2023-04-13T04:21:15.548Z,1.35
2023-04-13T04:23:42.175Z,1.33
2023-04-13T04:26:08.810Z,0.90
2023-04-13T04:28:38.967Z,1.08
2023-04-13T04:31:10.729Z,1.13
2023-04-13T04:33:40.635Z,1.20
2023-04-13T04:36:09.853Z,1.33
2023-04-13T04:38:36.614Z,1.15
2023-04-13T04:41:03.224Z,1.38
2023-04-13T04:43:30.381Z,1.25
2023-04-13T04:45:58.074Z,1.25
2023-04-13T04:48:26.543Z,0.80
2023-04-13T04:50:53.892Z,1.13
2023-04-13T04:53:21.172Z,1.40
2023-04-13T04:55:48.195Z,1.00
2023-04-13T04:58:14.792Z,1.23
2023-04-13T05:00:41.751Z,1.20
2023-04-13T05:03:08.492Z,1.10
2023-04-13T05:05:35.373Z,1.02
2023-04-13T05:08:02.021Z,1.75
2023-04-13T05:10:29.645Z,1.98
2023-04-13T05:12:56.733Z,1.10
2023-04-13T05:15:23.696Z,1.27
2023-04-13T05:17:51.241Z,1.05
2023-04-13T05:20:19.514Z,1.25
2023-04-13T05:22:46.185Z,2.00
2023-04-13T05:25:13.346Z,1.30
2023-04-13T05:27:40.016Z,0.90
2023-04-13T05:30:09.450Z,1.00
2023-04-13T05:32:36.315Z,1.20
2023-04-13T05:35:04.406Z,1.05
2023-04-13T05:37:31.979Z,1.60
2023-04-13T05:39:58.722Z,1.05
2023-04-13T05:42:25.402Z,1.10
2023-04-13T05:44:52.359Z,1.20
2023-04-13T05:47:21.217Z,1.65
2023-04-13T05:49:48.015Z,1.38
2023-04-13T05:52:14.654Z,1.20
2023-04-13T05:54:41.495Z,1.20
2023-04-13T05:57:08.176Z,1.30
2023-04-13T05:59:35.523Z,1.40
2023-04-13T06:02:03.086Z,1.45
2023-04-13T06:04:31.136Z,1.30
2023-04-13T06:06:57.931Z,1.20
2023-04-13T06:09:24.564Z,1.40
2023-04-13T06:11:51.192Z,1.25
2023-04-13T06:14:18.253Z,1.02
2023-04-13T06:16:44.890Z,1.65
2023-04-13T06:19:12.435Z,1.20
2023-04-13T06:21:39.042Z,1.40
2023-04-13T06:24:06.032Z,1.20
2023-04-13T06:26:33.621Z,1.58
2023-04-13T06:29:00.428Z,2.13
2023-04-13T06:31:28.036Z,1.25
2023-04-13T06:33:55.381Z,1.42
2023-04-13T06:36:22.081Z,1.38
2023-04-13T06:38:48.727Z,1.45
2023-04-13T06:41:15.508Z,1.20
2023-04-13T06:43:43.283Z,1.15
2023-04-13T06:46:09.942Z,1.90
2023-04-13T06:48:36.762Z,1.35
2023-04-13T06:51:03.693Z,1.00
2023-04-13T06:53:30.936Z,1.30
2023-04-13T06:55:57.555Z,1.50
2023-04-13T06:58:24.222Z,1.60
2023-04-13T07:00:50.938Z,1.60
2023-04-13T07:03:17.660Z,1.50
2023-04-13T07:05:45.364Z,2.05
2023-04-13T07:08:12.914Z,1.50
2023-04-13T07:10:40.888Z,1.35
2023-04-13T07:13:07.605Z,1.48
2023-04-13T07:15:37.109Z,1.50
2023-04-13T07:18:04.244Z,1.50
2023-04-13T07:20:31.045Z,1.63
2023-04-13T07:22:58.141Z,1.70
2023-04-13T07:25:24.764Z,2.10
2023-04-13T07:27:51.380Z,1.55
2023-04-13T07:30:18.094Z,1.40
2023-04-13T07:32:44.750Z,1.40
2023-04-13T07:35:11.388Z,1.40
2023-04-13T07:37:38.022Z,1.35
2023-04-13T07:40:05.387Z,1.77
2023-04-13T07:42:32.019Z,1.40
2023-04-13T07:44:58.644Z,1.70
2023-04-13T07:47:25.445Z,1.60
2023-04-13T07:49:52.119Z,1.60
2023-04-13T07:52:19.947Z,1.65
2023-04-13T07:54:46.592Z,2.25
2023-04-13T07:57:13.186Z,1.63
2023-04-13T07:59:39.809Z,1.55
2023-04-13T08:02:07.026Z,2.33
2023-04-13T08:04:34.180Z,2.28
2023-04-13T08:07:04.486Z,1.98
2023-04-13T08:09:36.169Z,1.70
2023-04-13T08:12:03.713Z,1.90
2023-04-13T08:14:31.106Z,2.03
2023-04-13T08:16:57.879Z,2.10
2023-04-13T08:19:25.565Z,2.00
2023-04-13T08:21:52.554Z,1.40
2023-04-13T08:24:23.417Z,2.33
2023-04-13T08:26:52.137Z,1.85
2023-04-13T08:29:19.004Z,1.27
2023-04-13T08:31:46.178Z,1.90
2023-04-13T08:34:14.052Z,2.00
2023-04-13T08:36:40.854Z,2.22
2023-04-13T08:39:10.155Z,1.92
2023-04-13T08:41:41.816Z,2.50
2023-04-13T08:44:08.806Z,1.73
2023-04-13T08:46:35.598Z,1.85
2023-04-13T08:49:02.227Z,2.40
2023-04-13T08:51:29.955Z,1.40
2023-04-13T08:53:56.559Z,1.55
2023-04-13T08:56:30.884Z,1.80
2023-04-13T08:59:05.043Z,1.48
2023-04-13T09:01:32.492Z,1.48
2023-04-13T09:04:10.360Z,1.65
2023-04-13T09:06:39.821Z,1.63
2023-04-13T09:09:08.817Z,1.20
2023-04-13T09:11:36.274Z,1.52
2023-04-13T09:14:02.877Z,1.45
2023-04-13T09:16:29.618Z,1.38
2023-04-13T09:18:57.511Z,0.85
2023-04-13T09:21:35.619Z,1.15
2023-04-13T09:24:02.591Z,1.40
2023-04-13T09:26:38.962Z,1.52
2023-04-13T09:29:05.983Z,1.00
2023-04-13T09:31:37.778Z,1.38
2023-04-13T09:34:04.481Z,1.33
2023-04-13T09:36:32.488Z,1.30
2023-04-13T09:38:59.593Z,1.10
2023-04-13T09:41:32.793Z,1.30
2023-04-13T09:44:28.427Z,1.10
2023-04-13T09:46:58.931Z,1.20
2023-04-13T09:49:26.139Z,1.20
2023-04-13T09:51:53.488Z,0.90
2023-04-13T09:54:23.236Z,1.70
2023-04-13T09:56:55.695Z,1.17
2023-04-13T09:59:25.967Z,1.00
2023-04-13T10:01:53.942Z,1.00
2023-04-13T10:04:20.902Z,1.10
2023-04-13T10:06:48.192Z,1.58
2023-04-13T10:09:15.373Z,1.40
2023-04-13T10:11:46.771Z,1.38
2023-04-13T10:14:24.744Z,0.90
2023-04-13T10:17:04.796Z,1.40
2023-04-13T10:19:41.174Z,1.50
2023-04-13T10:22:09.195Z,2.20
2023-04-13T10:24:36.368Z,2.10
2023-04-13T10:27:11.542Z,2.72
2023-04-13T10:29:38.201Z,2.50
2023-04-13T10:32:05.321Z,3.55
2023-04-13T10:34:34.457Z,2.63
2023-04-13T10:37:06.177Z,2.20
2023-04-13T10:39:34.230Z,1.75
2023-04-13T10:42:10.610Z,2.20
2023-04-13T10:44:47.873Z,1.60
2023-04-13T10:47:15.950Z,1.48
2023-04-13T10:49:43.571Z,1.40
2023-04-13T10:52:11.427Z,0.85
2023-04-13T10:54:38.988Z,1.20
2023-04-13T10:57:06.529Z,1.00
2023-04-13T10:59:58.961Z,0.82
2023-04-13T11:02:29.683Z,0.95
2023-04-13T11:04:56.977Z,0.70
2023-04-13T11:07:23.924Z,1.00
2023-04-13T11:09:50.916Z,0.65
2023-04-13T11:12:20.687Z,0.90
2023-04-13T11:14:47.591Z,1.10
2023-04-13T11:17:15.425Z,0.80
2023-04-13T11:19:55.259Z,0.63
2023-04-13T11:22:23.856Z,0.90
2023-04-13T11:24:50.988Z,0.60
2023-04-13T11:27:22.033Z,0.60
2023-04-13T11:29:58.198Z,0.90
2023-04-13T11:32:26.351Z,0.63
2023-04-13T11:34:53.158Z,0.70
2023-04-13T11:37:20.009Z,1.10
2023-04-13T11:39:46.637Z,0.90
2023-04-13T11:42:13.468Z,0.70
2023-04-13T11:44:40.185Z,1.33
2023-04-13T11:47:08.811Z,0.90
2023-04-13T11:49:35.980Z,0.73
2023-04-13T11:52:02.857Z,0.60
2023-04-13T11:54:30.036Z,0.80
2023-04-13T11:56:56.792Z,0.50
2023-04-13T11:59:24.600Z,0.70
2023-04-13T12:02:01.581Z,0.73
2023-04-13T12:04:41.425Z,0.63
2023-04-13T12:07:12.987Z,0.45
2023-04-13T12:15:13.914Z,0.50
2023-04-13T12:17:57.724Z,0.65
2023-04-13T12:20:36.575Z,0.63
2023-04-13T12:23:12.561Z,0.55
2023-04-13T12:26:25.488Z,0.50
2023-04-13T12:28:49.286Z,0.60
2023-04-13T12:31:16.653Z,0.20
2023-04-13T12:33:43.681Z,0.40
2023-04-13T12:36:12.961Z,0.55
2023-04-13T12:38:39.668Z,0.50
2023-04-13T12:41:10.152Z,0.50
2023-04-13T12:43:36.778Z,0.60
2023-04-13T12:46:03.423Z,0.70
2023-04-13T12:48:30.816Z,0.70
2023-04-13T12:50:57.502Z,0.40
2023-04-13T12:53:24.150Z,0.40
2023-04-13T12:55:51.361Z,0.30
2023-04-13T12:58:17.952Z,0.75
2023-04-13T13:00:44.607Z,0.40
2023-04-13T13:03:14.942Z,0.50
2023-04-13T13:05:42.367Z,0.60
2023-04-13T13:08:09.307Z,0.40
2023-04-13T13:10:36.922Z,0.70
2023-04-13T13:13:04.067Z,0.73
2023-04-13T13:15:31.715Z,0.38
2023-04-13T13:18:00.757Z,0.50
2023-04-13T13:20:27.502Z,0.70
2023-04-13T13:22:54.097Z,0.60
2023-04-13T13:25:20.752Z,0.60
2023-04-13T13:30:16.877Z,0.70
2023-04-13T13:32:43.541Z,0.55
2023-04-13T13:35:10.725Z,0.60
2023-04-13T13:37:37.418Z,1.50
2023-04-13T13:40:12.765Z,2.97
2023-04-13T13:42:50.751Z,1.40
2023-04-13T13:45:18.784Z,10.05
2023-04-13T13:47:49.670Z,1.67
2023-04-13T13:50:16.537Z,1.10
2023-04-13T13:52:51.829Z,0.77
2023-04-13T13:55:26.361Z,0.85
2023-04-13T13:57:53.636Z,0.70
2023-04-13T14:00:20.762Z,0.80
2023-04-13T14:02:47.601Z,0.60
2023-04-13T14:05:14.764Z,0.60
2023-04-13T14:07:42.786Z,0.50
2023-04-13T14:10:10.331Z,0.70
2023-04-13T14:12:38.867Z,0.70
2023-04-13T14:15:06.877Z,0.70
2023-04-13T14:17:33.887Z,0.70
2023-04-13T14:20:00.804Z,1.17
2023-04-13T14:22:27.410Z,0.80
2023-04-13T14:24:54.705Z,0.70
2023-04-13T14:27:21.404Z,0.98
2023-04-13T14:29:48.073Z,1.00
2023-04-13T14:32:14.722Z,1.10
2023-04-13T14:34:41.432Z,1.13
2023-04-13T14:37:09.941Z,1.48
2023-04-13T14:39:36.576Z,1.63
2023-04-13T14:42:03.257Z,1.13
2023-04-13T14:44:29.997Z,1.33
2023-04-13T14:46:57.182Z,1.50
2023-04-13T14:49:23.906Z,1.35
2023-04-13T14:51:50.853Z,1.05
2023-04-13T14:54:17.548Z,1.13
2023-04-13T14:56:44.189Z,1.13
2023-04-13T14:59:10.799Z,1.65
2023-04-13T15:01:37.454Z,1.42
2023-04-13T15:04:04.462Z,1.27
2023-04-13T15:06:31.260Z,1.42
2023-04-13T15:08:58.141Z,1.20
2023-04-13T15:11:25.015Z,1.60
2023-04-13T15:13:51.673Z,1.50
2023-04-13T15:16:18.402Z,1.77
2023-04-13T15:18:45.192Z,2.30
2023-04-13T15:21:11.828Z,3.38
2023-04-13T15:23:38.437Z,3.58
2023-04-13T15:26:05.245Z,3.90
2023-04-13T15:28:31.971Z,3.42
2023-04-13T15:30:58.689Z,2.65
2023-04-13T15:33:25.420Z,1.80
2023-04-13T15:35:52.305Z,2.38
2023-04-13T15:38:18.925Z,4.63
2023-04-13T15:40:45.603Z,2.08
2023-04-13T15:43:12.210Z,1.83
2023-04-13T15:45:39.229Z,2.00
2023-04-13T15:48:06.979Z,1.80
2023-04-13T15:50:33.815Z,2.67
2023-04-13T15:53:00.536Z,7.88
2023-04-13T15:55:27.910Z,1.77
2023-04-13T15:57:55.936Z,1.23
2023-04-13T16:00:22.672Z,1.20
2023-04-13T16:02:49.378Z,1.40
2023-04-13T16:05:16.431Z,2.17
2023-04-13T16:07:43.034Z,1.05
2023-04-13T16:10:17.980Z,1.83
2023-04-13T16:12:45.389Z,1.50
2023-04-13T16:15:12.199Z,1.60
2023-04-13T16:17:43.620Z,1.30
2023-04-13T16:20:13.762Z,1.10
2023-04-13T16:22:47.093Z,1.45
2023-04-13T16:25:15.420Z,1.40
2023-04-13T16:27:42.871Z,1.20
2023-04-13T16:30:13.375Z,1.70
2023-04-13T16:32:44.568Z,1.15
2023-04-13T16:35:11.528Z,1.00
2023-04-13T16:37:42.327Z,1.27
2023-04-13T16:40:10.755Z,1.00
2023-04-13T16:42:40.706Z,1.20
2023-04-13T16:45:14.414Z,1.05
2023-04-13T16:50:12.190Z,0.80
2023-04-13T16:52:39.795Z,1.00
2023-04-13T16:55:06.752Z,1.08
2023-04-13T16:57:33.392Z,1.65
2023-04-13T17:00:01.003Z,1.73
2023-04-13T17:02:31.558Z,1.35
2023-04-13T17:04:58.400Z,1.70
2023-04-13T17:07:26.852Z,1.75
2023-04-13T17:09:53.962Z,1.80
2023-04-13T17:12:22.245Z,1.20
2023-04-13T17:14:52.087Z,1.10
2023-04-13T17:17:18.990Z,1.30
2023-04-13T17:19:45.740Z,1.40
2023-04-13T17:22:12.982Z,1.20
2023-04-13T17:24:39.575Z,0.95
2023-04-13T17:27:06.442Z,1.48
2023-04-13T17:29:36.237Z,1.27
2023-04-13T17:32:02.882Z,1.50
2023-04-13T17:34:29.528Z,1.33
2023-04-13T17:36:57.135Z,1.70
2023-04-13T17:39:23.732Z,1.83
2023-04-13T17:41:50.414Z,2.08
2023-04-13T17:44:17.026Z,1.80
2023-04-13T17:46:43.814Z,2.35
2023-04-13T17:49:10.434Z,1.80
2023-04-13T17:51:37.072Z,1.73
2023-04-13T17:54:07.687Z,1.65
2023-04-13T17:56:34.720Z,1.73
2023-04-13T17:59:02.300Z,1.75
2023-04-13T18:01:29.109Z,2.33
2023-04-13T18:03:56.141Z,1.75
2023-04-13T18:06:23.479Z,2.38
2023-04-13T18:08:50.079Z,1.63
2023-04-13T18:11:16.733Z,1.90
2023-04-13T18:13:43.408Z,2.88
2023-04-13T18:16:13.400Z,3.00
2023-04-13T18:18:40.947Z,2.38
2023-04-13T18:21:08.352Z,2.30
2023-04-13T18:23:34.974Z,1.88
2023-04-13T18:26:01.816Z,1.55
2023-04-13T18:28:29.619Z,1.40
2023-04-13T18:31:00.406Z,1.90
2023-04-13T18:33:27.775Z,2.90
2023-04-13T18:35:54.393Z,1.50
2023-04-13T18:38:21.193Z,1.55
2023-04-13T18:40:49.356Z,1.60
2023-04-13T18:43:16.536Z,1.55
2023-04-13T18:45:43.298Z,1.52
2023-04-13T18:48:10.082Z,1.60
2023-04-13T18:50:36.899Z,2.08
2023-04-13T18:53:03.552Z,2.20
2023-04-13T18:55:30.288Z,2.30
2023-04-13T18:57:57.208Z,2.20
2023-04-13T19:00:23.943Z,2.47
2023-04-13T19:02:52.490Z,2.97
2023-04-13T19:05:19.471Z,1.60
2023-04-13T19:07:58.630Z,2.20
2023-04-13T19:10:26.025Z,1.45
2023-04-13T19:12:52.655Z,1.95
2023-04-13T19:15:19.435Z,1.63
2023-04-13T19:17:46.259Z,1.63
2023-04-13T19:20:13.259Z,1.70
2023-04-13T19:22:40.054Z,1.67
2023-04-13T19:25:13.798Z,1.75
2023-04-13T19:27:41.307Z,2.08
2023-04-13T19:30:09.902Z,2.15
2023-04-13T19:32:39.813Z,3.30
2023-04-13T19:35:06.545Z,4.15
2023-04-13T19:37:33.731Z,2.95
2023-04-13T19:40:00.925Z,2.30
2023-04-13T19:42:28.576Z,2.17
2023-04-13T19:44:55.385Z,2.40
2023-04-13T19:47:22.089Z,1.98
2023-04-13T19:49:48.716Z,2.55
2023-04-13T19:52:18.123Z,4.25
2023-04-13T19:54:45.161Z,5.05
2023-04-13T19:57:12.084Z,3.70
2023-04-13T19:59:39.654Z,4.20
2023-04-13T20:02:06.728Z,3.45
2023-04-13T20:04:33.804Z,3.47
2023-04-13T20:07:00.738Z,4.50
2023-04-13T20:09:27.635Z,3.75
2023-04-13T20:11:54.252Z,3.08
2023-04-13T20:14:21.205Z,3.63
2023-04-13T20:16:47.946Z,3.90
2023-04-13T20:19:14.626Z,3.55
2023-04-13T20:21:42.051Z,3.28
2023-04-13T20:24:08.884Z,3.00
2023-04-13T20:26:35.530Z,3.55
2023-04-13T20:29:03.178Z,3.78
2023-04-13T20:31:30.659Z,3.10
2023-04-13T20:33:57.640Z,3.67
2023-04-13T20:36:25.671Z,3.92
2023-04-13T20:38:52.437Z,3.90
2023-04-13T20:41:21.664Z,2.95
2023-04-13T20:43:50.313Z,3.58
2023-04-13T20:46:16.982Z,4.07
2023-04-13T20:51:15.773Z,4.22
2023-04-13T20:53:42.379Z,4.88
2023-04-13T20:56:09.209Z,3.88
2023-04-13T20:58:37.377Z,3.60
2023-04-13T21:01:04.617Z,2.97
2023-04-13T21:03:31.955Z,3.03
2023-04-13T21:05:59.164Z,2.65
2023-04-13T21:08:26.483Z,2.65
2023-04-13T21:10:53.139Z,2.80
2023-04-13T21:13:19.788Z,4.28
2023-04-13T21:15:47.071Z,3.35
2023-04-13T21:18:13.674Z,3.65
2023-04-13T21:20:42.460Z,3.70
2023-04-13T21:23:09.073Z,3.60
2023-04-13T21:25:36.564Z,4.07
2023-04-13T21:28:03.251Z,4.05
2023-04-13T21:30:29.878Z,5.22
2023-04-13T21:32:56.560Z,4.57
2023-04-13T21:35:23.235Z,4.80
2023-04-13T21:37:49.875Z,5.57
2023-04-13T21:40:18.071Z,5.10
2023-04-13T21:42:44.956Z,4.75
2023-04-13T21:45:11.745Z,4.53
2023-04-13T21:47:38.497Z,3.90
2023-04-13T21:50:06.045Z,4.45
2023-04-13T21:52:32.666Z,4.53
2023-04-13T21:54:59.832Z,4.50
2023-04-13T21:57:26.734Z,4.60
2023-04-13T21:59:54.595Z,4.50
2023-04-13T22:02:21.416Z,5.03
2023-04-13T22:04:48.173Z,4.45
2023-04-13T22:07:14.820Z,6.43
2023-04-13T22:09:41.649Z,5.50
2023-04-13T22:12:10.721Z,4.50
2023-04-13T22:14:37.336Z,4.30
2023-04-13T22:17:03.950Z,3.83
2023-04-13T22:19:30.599Z,4.10
2023-04-13T22:21:57.371Z,4.30
2023-04-13T22:24:23.968Z,4.10
2023-04-13T22:26:51.219Z,3.78
2023-04-13T22:29:17.844Z,4.38
2023-04-13T22:31:44.588Z,3.90
2023-04-13T22:34:11.265Z,3.75
2023-04-13T22:36:37.956Z,3.70
2023-04-13T22:39:04.955Z,3.85
2023-04-13T22:41:31.584Z,3.40
2023-04-13T22:43:58.188Z,4.13
2023-04-13T22:46:24.807Z,5.18
2023-04-13T22:48:51.494Z,6.40
2023-04-13T22:51:18.107Z,18.42
2023-04-13T22:53:44.715Z,11.63
2023-04-13T22:56:11.353Z,6.43
2023-04-13T22:58:37.967Z,6.38
2023-04-13T23:01:04.925Z,7.22
2023-04-13T23:03:31.828Z,6.10
2023-04-13T23:05:58.597Z,6.60
2023-04-13T23:08:25.596Z,5.35
2023-04-13T23:10:52.209Z,5.70
2023-04-13T23:13:18.858Z,5.25
2023-04-13T23:15:45.460Z,4.90
2023-04-13T23:18:12.093Z,4.47
2023-04-13T23:20:38.723Z,4.40
2023-04-13T23:23:05.501Z,4.60
2023-04-13T23:25:32.122Z,4.90
2023-04-13T23:27:58.719Z,5.43
2023-04-13T23:30:25.331Z,5.55
2023-04-13T23:32:51.944Z,5.20
2023-04-13T23:35:18.563Z,5.60
2023-04-13T23:37:46.078Z,6.25
2023-04-13T23:40:12.752Z,5.20
2023-04-13T23:42:39.397Z,5.07
2023-04-13T23:45:06.612Z,5.03
2023-04-13T23:47:33.637Z,4.35
2023-04-13T23:50:00.607Z,4.00
2023-04-13T23:52:27.296Z,4.22
2023-04-13T23:54:53.904Z,3.92
2023-04-13T23:57:20.860Z,4.60
2023-04-13T23:59:47.452Z,4.25
